Aérodrome :
LOGIN :

S'inscrire | Disclaimer

   EN    FR    IT 

 










Légende :    VFR   VFR Marginal   IFR   IFR Intensif   IFR Très Intensif
Visi : 
Plafond : 
>= 8 km
>= 3000ft
5 à 8 km
1000 à 3000 ft
1500m à 5 km
500 à 1000 ft
800 à 1500m
200 à 500 ft
< 800m
< 200 ft
Symboles :   Orages  Brouillard  Fortes neiges  Fortes précipitations  Vent > 20 kt
SIGMETs :   Divers  Orages  Givrage  Turbulence  Onde Orograph.  Cendres Volcan.






- Altitude de l'aérodrome : 17 ft
- Code IATA : GRQ


EHGG - Groningen Eelde

DERNIER METAR :
  • 212155Z AUTO 11004KT 080V150 2800 BR FEW002 BKN003 BKN005 03/03 Q1006

METARs EXPIRÉS :
  • 212125Z AUTO 10004KT 060V130 3100 BR FEW004 03/02 Q1006 TEMPO BKN003
  • 212055Z AUTO 11003KT 060V140 4000 BR NSC 03/03 Q1006 TEMPO 3500 BKN003
  • 212025Z AUTO 10004KT 080V140 4200 BR NSC 03/03 Q1007 TEMPO 3500 BKN003
  • 211955Z AUTO 11004KT 080V140 4700 BR NSC 03/03 Q1007 TEMPO 3500 BKN003
  • 211925Z AUTO 10004KT 070V130 4800 BR BKN011 04/03 Q1007 TEMPO 3500 BKN003

TAF COR TAF EHGG
Valide du 21 à 21h jusqu'au 23 à 00h UTC


212143Z 2121/2224 12006KT 3000 BR NSC
TEMPO 2121/2205 BKN003
PROB30
TEMPO 2121/2203 1200 BKN001
BECMG 2206/2209 15011KT 4000 NSC
BECMG 2210/2212 7000 NSW
BECMG 2216/2219 10012KT 4000 BR
PROB40 2221/2224 BKN003



MET'MAP, la Météo Aéronautique d'un coup d'oeil ! - Copyright ORBIFLY Décembre 2007 - Disclaimer

ORBIFLY MET'MAP TEAM :

Programmation & Développement : Alexandra Zaïnal
Conception & Développement : Baudouin d'Aumeries
Co-Programmation & Développement : Marc-Olivier Méhu
Soutien technique & logistique : Manuel Goepfert

Contact : metmap@orbifly.com




SOURCES & CREDITS :

   NOAA